createdAt,value
2018-08-19T00:00:32.900Z,32.8
2018-08-19T00:01:35.350Z,32.8
2018-08-19T00:02:37.269Z,32.8
2018-08-19T00:03:39.721Z,32.8
2018-08-19T00:04:42.166Z,32.8
2018-08-19T00:05:44.060Z,32.8
2018-08-19T00:06:46.236Z,32.8
2018-08-19T00:07:48.680Z,32.8
2018-08-19T00:08:50.841Z,32.8
2018-08-19T00:09:52.752Z,32.8
2018-08-19T00:10:54.933Z,32.8
2018-08-19T00:11:56.541Z,32.8
2018-08-19T00:12:58.691Z,32.8
2018-08-19T00:14:01.157Z,32.8
2018-08-19T00:15:03.595Z,32.8
2018-08-19T00:16:05.468Z,32.8
2018-08-19T00:17:07.925Z,32.8
2018-08-19T00:18:09.844Z,32.8
2018-08-19T00:19:11.765Z,32.9
2018-08-19T00:20:14.206Z,32.9
2018-08-19T00:21:16.395Z,32.9
2018-08-19T00:22:18.833Z,32.9
2018-08-19T00:23:20.745Z,32.9
2018-08-19T00:24:22.618Z,32.9
2018-08-19T00:25:24.781Z,32.9
2018-08-19T00:26:27.230Z,32.9
2018-08-19T00:27:29.672Z,32.9
2018-08-19T00:28:32.120Z,32.9
2018-08-19T00:29:34.006Z,32.9
2018-08-19T00:30:35.924Z,32.9
2018-08-19T00:31:38.101Z,32.9
2018-08-19T00:32:40.542Z,32.9
2018-08-19T00:33:42.994Z,32.9
2018-08-19T00:34:45.177Z,32.9
2018-08-19T00:35:47.333Z,33
2018-08-19T00:36:49.508Z,33
2018-08-19T00:37:51.960Z,33
2018-08-19T00:38:54.139Z,33
2018-08-19T00:39:56.579Z,33
2018-08-19T00:40:59.044Z,33
2018-08-19T00:42:01.194Z,33
2018-08-19T00:43:03.651Z,33
2018-08-19T00:44:06.098Z,33
2018-08-19T00:45:08.286Z,33
2018-08-19T00:46:10.734Z,33
2018-08-19T00:47:12.902Z,33
2018-08-19T00:48:15.081Z,33
2018-08-19T00:49:17.261Z,33
2018-08-19T00:50:19.714Z,33
2018-08-19T00:51:22.161Z,33
2018-08-19T00:52:24.609Z,33
2018-08-19T00:53:26.784Z,33
2018-08-19T00:54:29.232Z,33
2018-08-19T00:55:31.667Z,33
2018-08-19T00:56:33.573Z,33
2018-08-19T00:57:36.028Z,33
2018-08-19T00:58:38.219Z,33
2018-08-19T00:59:40.377Z,33
2018-08-19T01:00:42.863Z,33
2018-08-19T01:01:44.677Z,33
2018-08-19T01:02:46.828Z,33
2018-08-19T01:03:49.283Z,33
2018-08-19T01:04:50.901Z,33
2018-08-19T01:05:53.341Z,33
2018-08-19T01:06:55.036Z,33
2018-08-19T01:07:57.217Z,33
2018-08-19T01:08:59.392Z,33
2018-08-19T01:10:01.560Z,33
2018-08-19T01:11:03.734Z,33
2018-08-19T01:12:06.181Z,33
2018-08-19T01:13:08.351Z,33
2018-08-19T01:14:10.831Z,33
2018-08-19T01:15:13.271Z,33
2018-08-19T01:16:15.146Z,33
2018-08-19T01:17:17.312Z,33.1
2018-08-19T01:18:19.767Z,33.1
2018-08-19T01:19:22.208Z,33.1
2018-08-19T01:20:24.671Z,33.1
2018-08-19T01:21:26.850Z,33.1
2018-08-19T01:22:29.026Z,33.1
2018-08-19T01:23:31.215Z,33.1
2018-08-19T01:24:33.395Z,33.1
2018-08-19T01:25:35.276Z,33.1
2018-08-19T01:26:37.178Z,33.1
2018-08-19T01:27:39.332Z,33.1
2018-08-19T01:28:41.507Z,33.1
2018-08-19T01:29:43.959Z,33.1
2018-08-19T01:30:46.401Z,33.1
2018-08-19T01:31:48.850Z,33.1
2018-08-19T01:32:50.471Z,33.1
2018-08-19T01:33:52.911Z,33.1
2018-08-19T01:34:55.366Z,33.1
2018-08-19T01:35:57.813Z,33.1
2018-08-19T01:37:00.264Z,33.1
2018-08-19T01:38:02.718Z,33.1
2018-08-19T01:39:04.615Z,33.1
2018-08-19T01:40:06.807Z,33.1
2018-08-19T01:41:08.987Z,33.1
2018-08-19T01:42:11.158Z,33.1
2018-08-19T01:43:13.346Z,33.1
2018-08-19T01:44:15.518Z,33.1
2018-08-19T01:45:17.677Z,33.1
2018-08-19T01:46:19.328Z,33.1
2018-08-19T01:47:21.510Z,33.1
2018-08-19T01:48:24.150Z,33.1
2018-08-19T01:49:26.610Z,33.1
2018-08-19T01:50:28.798Z,33.1
2018-08-19T01:51:30.984Z,33.1
2018-08-19T01:52:33.427Z,33.1
2018-08-19T01:53:35.595Z,33.1
2018-08-19T01:54:37.760Z,33.1
2018-08-19T01:55:39.930Z,33.1
2018-08-19T01:56:42.110Z,33.1
2018-08-19T01:57:44.555Z,33.1
2018-08-19T01:58:46.737Z,33.1
2018-08-19T01:59:48.617Z,33.1
2018-08-19T02:00:51.070Z,33.1
2018-08-19T02:01:52.981Z,33.1
2018-08-19T02:02:55.425Z,33.1
2018-08-19T02:03:57.615Z,33.1
2018-08-19T02:05:00.058Z,33.1
2018-08-19T02:06:01.933Z,33.1
2018-08-19T02:07:04.375Z,33.1
2018-08-19T02:08:06.545Z,33.1
2018-08-19T02:09:09.000Z,33.1
2018-08-19T02:10:11.193Z,33.1
2018-08-19T02:11:13.378Z,33.1
2018-08-19T02:12:15.547Z,33.1
2018-08-19T02:13:17.457Z,33.1
2018-08-19T02:14:19.643Z,33.1
2018-08-19T02:15:21.824Z,33.1
2018-08-19T02:16:24.010Z,33.1
2018-08-19T02:17:25.916Z,33.1
2018-08-19T02:18:28.103Z,33.1
2018-08-19T02:19:30.284Z,33.1
2018-08-19T02:20:32.609Z,33.1
2018-08-19T02:21:35.209Z,33.1
2018-08-19T02:22:37.380Z,33.1
2018-08-19T02:23:39.820Z,33.1
2018-08-19T02:24:41.443Z,33.1
2018-08-19T02:25:43.876Z,33.1
2018-08-19T02:26:45.804Z,33.1
2018-08-19T02:27:48.249Z,33.2
2018-08-19T02:28:50.431Z,33.2
2018-08-19T02:29:52.334Z,33.1
2018-08-19T02:30:54.218Z,33.2
2018-08-19T02:31:56.661Z,33.2
2018-08-19T02:32:58.565Z,33.1
2018-08-19T02:34:00.721Z,33.2
2018-08-19T02:35:02.912Z,33.2
2018-08-19T02:36:05.357Z,33.2
2018-08-19T02:37:07.541Z,33.2
2018-08-19T02:38:09.992Z,33.2
2018-08-19T02:39:11.914Z,33.2
2018-08-19T02:40:14.103Z,33.2
2018-08-19T02:41:16.546Z,33.2
2018-08-19T02:42:18.735Z,33.2
2018-08-19T02:43:20.926Z,33.2
2018-08-19T02:44:23.095Z,33.2
2018-08-19T02:45:25.267Z,33.2
2018-08-19T02:46:27.446Z,33.2
2018-08-19T02:47:29.604Z,33.2
2018-08-19T02:48:32.050Z,33.2
2018-08-19T02:49:34.231Z,33.2
2018-08-19T02:50:36.397Z,33.2
2018-08-19T02:51:38.571Z,33.2
2018-08-19T02:52:40.739Z,33.2
2018-08-19T02:53:43.181Z,33.2
2018-08-19T02:54:45.357Z,33.2
2018-08-19T02:55:47.805Z,33.2
2018-08-19T02:56:50.256Z,33.2
2018-08-19T02:57:52.711Z,33.2
2018-08-19T02:58:54.632Z,33.2
2018-08-19T02:59:57.077Z,33.2
2018-08-19T03:00:59.527Z,33.2
2018-08-19T03:02:01.985Z,33.2
2018-08-19T03:03:04.427Z,33.2
2018-08-19T03:04:06.601Z,33.2
2018-08-19T03:05:09.043Z,33.1
2018-08-19T03:06:10.664Z,33.1
2018-08-19T03:07:13.109Z,33.1
2018-08-19T03:08:15.558Z,33.1
2018-08-19T03:09:18.008Z,33.1
2018-08-19T03:10:20.177Z,33.1
2018-08-19T03:11:22.101Z,33.1
2018-08-19T03:12:23.985Z,33
2018-08-19T03:13:26.149Z,33
2018-08-19T03:14:28.062Z,33
2018-08-19T03:15:30.245Z,33
2018-08-19T03:16:32.687Z,33
2018-08-19T03:17:35.141Z,33
2018-08-19T03:18:37.587Z,33
2018-08-19T03:19:40.029Z,32.9
2018-08-19T03:20:41.691Z,32.9
2018-08-19T03:21:44.136Z,32.9
2018-08-19T03:22:46.314Z,32.9
2018-08-19T03:23:48.460Z,32.9
2018-08-19T03:24:50.380Z,32.9
2018-08-19T03:25:52.576Z,32.9
2018-08-19T03:26:55.027Z,32.9
2018-08-19T03:27:57.473Z,32.9
2018-08-19T03:28:59.672Z,32.9
2018-08-19T03:30:01.555Z,32.9
2018-08-19T03:31:04.056Z,32.9
2018-08-19T03:32:05.677Z,32.9
2018-08-19T03:33:07.836Z,32.8
2018-08-19T03:34:10.274Z,32.8
2018-08-19T03:35:12.818Z,32.8
2018-08-19T03:36:15.261Z,32.8
2018-08-19T03:37:17.417Z,32.8
2018-08-19T03:38:19.591Z,32.8
2018-08-19T03:39:22.037Z,32.8
2018-08-19T03:40:24.478Z,32.8
2018-08-19T03:41:26.927Z,32.8
2018-08-19T03:42:29.400Z,32.8
2018-08-19T03:43:31.589Z,32.8
2018-08-19T03:44:33.752Z,32.8
2018-08-19T03:45:35.924Z,32.8
2018-08-19T03:46:38.122Z,32.8
2018-08-19T03:47:40.294Z,32.8
2018-08-19T03:48:42.479Z,32.8
2018-08-19T03:49:44.913Z,32.8
2018-08-19T03:50:47.356Z,32.8
2018-08-19T03:51:49.801Z,32.8
2018-08-19T03:52:52.236Z,32.7
2018-08-19T03:53:54.136Z,32.7
2018-08-19T03:54:56.581Z,32.7
2018-08-19T03:55:58.769Z,32.7
2018-08-19T03:57:00.668Z,32.7
2018-08-19T03:58:02.856Z,32.7
2018-08-19T03:59:04.747Z,32.7
2018-08-19T04:00:07.189Z,32.7
2018-08-19T04:01:09.367Z,32.7
2018-08-19T04:02:11.582Z,32.7
2018-08-19T04:03:13.756Z,32.7
2018-08-19T04:04:16.220Z,32.7
2018-08-19T04:05:18.434Z,32.7
2018-08-19T04:06:20.887Z,32.7
2018-08-19T04:07:23.061Z,32.7
2018-08-19T04:08:25.507Z,32.7
2018-08-19T04:09:27.959Z,32.7
2018-08-19T04:10:30.413Z,32.7
2018-08-19T04:11:32.858Z,32.7
2018-08-19T04:12:35.314Z,32.7
2018-08-19T04:13:37.499Z,32.7
2018-08-19T04:14:39.408Z,32.7
2018-08-19T04:15:41.856Z,32.7
2018-08-19T04:16:44.317Z,32.7
2018-08-19T04:17:46.764Z,32.7
2018-08-19T04:18:48.921Z,32.7
2018-08-19T04:19:51.367Z,32.7
2018-08-19T04:20:53.548Z,32.7
2018-08-19T04:21:55.993Z,32.7
2018-08-19T04:22:57.910Z,32.7
2018-08-19T04:24:00.340Z,32.6
2018-08-19T04:25:02.801Z,32.6
2018-08-19T04:26:04.978Z,32.6
2018-08-19T04:27:07.169Z,32.6
2018-08-19T04:28:08.820Z,32.6
2018-08-19T04:29:10.978Z,32.6
2018-08-19T04:30:12.840Z,32.6
2018-08-19T04:31:15.288Z,32.6
2018-08-19T04:32:16.893Z,32.6
2018-08-19T04:33:19.074Z,32.6
2018-08-19T04:34:21.253Z,32.6
2018-08-19T04:35:23.151Z,32.6
2018-08-19T04:36:24.784Z,32.6
2018-08-19T04:37:26.814Z,32.6
2018-08-19T04:38:29.008Z,32.6
2018-08-19T04:39:31.456Z,32.6
2018-08-19T04:40:33.894Z,32.6
2018-08-19T04:41:36.336Z,32.6
2018-08-19T04:42:38.513Z,32.6
2018-08-19T04:43:40.985Z,32.6
2018-08-19T04:44:43.466Z,32.6
2018-08-19T04:45:45.911Z,32.6
2018-08-19T04:46:48.370Z,32.6
2018-08-19T04:47:50.519Z,32.6
2018-08-19T04:48:52.975Z,32.6
2018-08-19T04:49:55.434Z,32.6
2018-08-19T04:50:57.618Z,32.6
2018-08-19T04:51:59.268Z,32.6
2018-08-19T04:53:01.445Z,32.6
2018-08-19T04:54:03.886Z,32.6
2018-08-19T04:55:06.359Z,32.6
2018-08-19T04:56:08.797Z,32.6
2018-08-19T04:57:11.000Z,32.6
2018-08-19T04:58:13.160Z,32.6
2018-08-19T04:59:15.347Z,32.6
2018-08-19T05:00:17.263Z,32.6
2018-08-19T05:01:18.872Z,32.6
2018-08-19T05:02:21.974Z,32.6
2018-08-19T05:03:24.281Z,32.6
2018-08-19T05:04:26.726Z,32.6
2018-08-19T05:05:29.170Z,32.6
2018-08-19T05:06:31.342Z,32.6
2018-08-19T05:07:33.786Z,32.6
2018-08-19T05:08:35.690Z,32.6
2018-08-19T05:09:37.834Z,32.5
2018-08-19T05:10:39.987Z,32.5
2018-08-19T05:11:41.606Z,32.6
2018-08-19T05:12:43.508Z,32.5
2018-08-19T05:13:45.971Z,32.5
2018-08-19T05:14:48.418Z,32.5
2018-08-19T05:15:50.864Z,32.5
2018-08-19T05:16:53.116Z,32.5
2018-08-19T05:17:54.741Z,32.5
2018-08-19T05:18:56.919Z,32.5
2018-08-19T05:19:59.367Z,32.5
2018-08-19T05:21:01.566Z,32.5
2018-08-19T05:22:03.720Z,32.5
2018-08-19T05:23:06.159Z,32.5
2018-08-19T05:24:08.066Z,32.5
2018-08-19T05:25:10.502Z,32.5
2018-08-19T05:26:12.947Z,32.5
2018-08-19T05:27:15.393Z,32.5
2018-08-19T05:28:17.084Z,32.5
2018-08-19T05:29:19.633Z,32.5
2018-08-19T05:30:21.543Z,32.5
2018-08-19T05:31:24.055Z,32.5
2018-08-19T05:32:26.286Z,32.5
2018-08-19T05:33:28.744Z,32.5
2018-08-19T05:34:31.199Z,32.5
2018-08-19T05:35:33.378Z,32.5
2018-08-19T05:36:35.825Z,32.5
2018-08-19T05:37:38.279Z,32.5
2018-08-19T05:38:40.472Z,32.5
2018-08-19T05:39:42.653Z,32.5
2018-08-19T05:40:44.816Z,32.5
2018-08-19T05:41:46.996Z,32.5
2018-08-19T05:42:49.164Z,32.5
2018-08-19T05:43:51.068Z,32.5
2018-08-19T05:44:53.526Z,32.5
2018-08-19T05:45:55.702Z,32.5
2018-08-19T05:46:58.197Z,32.5
2018-08-19T05:48:00.376Z,32.5
2018-08-19T05:49:02.822Z,32.5
2018-08-19T05:50:05.006Z,32.5
2018-08-19T05:51:06.881Z,32.5
2018-08-19T05:52:09.339Z,32.5
2018-08-19T05:53:11.778Z,32.5
2018-08-19T05:54:13.663Z,32.5
2018-08-19T05:55:15.838Z,32.5
2018-08-19T05:56:18.305Z,32.5
2018-08-19T05:57:20.762Z,32.5
2018-08-19T05:58:23.198Z,32.5
2018-08-19T05:59:25.108Z,32.5
2018-08-19T06:00:26.985Z,32.5
2018-08-19T06:01:28.895Z,32.5
2018-08-19T06:02:31.077Z,32.5
2018-08-19T06:03:33.253Z,32.5
2018-08-19T06:04:35.700Z,32.5
2018-08-19T06:05:38.175Z,32.5
2018-08-19T06:06:40.097Z,32.5
2018-08-19T06:07:42.786Z,32.5
2018-08-19T06:08:45.623Z,32.5
2018-08-19T06:09:48.070Z,32.5
2018-08-19T06:10:49.977Z,32.5
2018-08-19T06:11:52.154Z,32.5
2018-08-19T06:12:54.308Z,32.5
2018-08-19T06:13:56.792Z,32.5
2018-08-19T06:14:58.961Z,32.5
2018-08-19T06:16:01.280Z,32.5
2018-08-19T06:17:03.583Z,32.5
2018-08-19T06:18:06.031Z,32.5
2018-08-19T06:19:08.497Z,32.5
2018-08-19T06:20:10.946Z,32.5
2018-08-19T06:21:13.124Z,32.5
2018-08-19T06:22:15.573Z,32.5
2018-08-19T06:23:17.747Z,32.5
2018-08-19T06:24:20.199Z,32.5
2018-08-19T06:25:22.120Z,32.5
2018-08-19T06:26:24.279Z,32.5
2018-08-19T06:27:26.458Z,32.5
2018-08-19T06:28:28.606Z,32.5
2018-08-19T06:29:30.784Z,32.5
2018-08-19T06:30:33.240Z,32.5
2018-08-19T06:31:35.683Z,32.5
2018-08-19T06:32:37.881Z,32.5
2018-08-19T06:33:40.330Z,32.5
2018-08-19T06:34:42.498Z,32.5
2018-08-19T06:35:44.798Z,32.5
2018-08-19T06:36:46.977Z,32.5
2018-08-19T06:37:49.434Z,32.5
2018-08-19T06:38:51.616Z,32.5
2018-08-19T06:39:53.782Z,32.5
2018-08-19T06:40:56.231Z,32.5
2018-08-19T06:41:58.693Z,32.5
2018-08-19T06:43:01.255Z,32.5
2018-08-19T06:44:03.177Z,32.5
2018-08-19T06:45:05.108Z,32.5
2018-08-19T06:46:07.258Z,32.5
2018-08-19T06:47:09.705Z,32.5
2018-08-19T06:48:12.158Z,32.5
2018-08-19T06:49:14.073Z,32.5
2018-08-19T06:50:16.273Z,32.5
2018-08-19T06:51:18.956Z,32.5
2018-08-19T06:52:21.987Z,32.5
2018-08-19T06:53:24.164Z,32.5
2018-08-19T06:54:26.121Z,32.5
2018-08-19T06:55:28.310Z,32.5
2018-08-19T06:56:30.825Z,32.5
2018-08-19T06:57:32.964Z,32.5
2018-08-19T06:58:35.117Z,32.5
2018-08-19T06:59:37.298Z,32.5
2018-08-19T07:00:39.760Z,32.5
2018-08-19T07:01:42.305Z,32.5
2018-08-19T07:02:45.129Z,32.5
2018-08-19T07:03:47.582Z,32.5
2018-08-19T07:04:49.971Z,32.5
2018-08-19T07:05:52.431Z,32.5
2018-08-19T07:06:54.628Z,32.5
2018-08-19T07:07:57.147Z,32.5
2018-08-19T07:08:59.642Z,32.5
2018-08-19T07:10:01.567Z,32.5
2018-08-19T07:11:04.047Z,32.5
2018-08-19T07:12:06.553Z,32.5
2018-08-19T07:13:09.032Z,32.5
2018-08-19T07:14:10.927Z,32.5
2018-08-19T07:15:13.371Z,32.5
2018-08-19T07:16:15.544Z,32.5
2018-08-19T07:17:17.726Z,32.5
2018-08-19T07:18:19.908Z,32.5
2018-08-19T07:19:22.083Z,32.5
2018-08-19T07:20:23.987Z,32.5
2018-08-19T07:21:26.446Z,32.5
2018-08-19T07:22:28.617Z,32.5
2018-08-19T07:23:31.074Z,32.5
2018-08-19T07:24:33.249Z,32.5
2018-08-19T07:25:35.688Z,32.5
2018-08-19T07:26:37.862Z,32.5
2018-08-19T07:27:40.309Z,32.5
2018-08-19T07:28:42.498Z,32.5
2018-08-19T07:29:45.156Z,32.5
2018-08-19T07:30:48.066Z,32.5
2018-08-19T07:31:50.247Z,32.5
2018-08-19T07:32:52.449Z,32.5
2018-08-19T07:33:54.612Z,32.5
2018-08-19T07:34:56.778Z,32.5
2018-08-19T07:35:58.938Z,32.5
2018-08-19T07:37:01.523Z,32.5
2018-08-19T07:38:04.042Z,32.5
2018-08-19T07:39:06.220Z,32.5
2018-08-19T07:40:08.664Z,32.5
2018-08-19T07:41:10.857Z,32.5
2018-08-19T07:42:13.306Z,32.5
2018-08-19T07:43:15.509Z,32.5
2018-08-19T07:44:17.696Z,32.5
2018-08-19T07:45:19.879Z,32.5
2018-08-19T07:46:22.040Z,32.5
2018-08-19T07:47:24.211Z,32.5
2018-08-19T07:48:26.107Z,32.5
2018-08-19T07:49:28.288Z,32.5
2018-08-19T07:50:30.460Z,32.5
2018-08-19T07:51:32.964Z,32.5
2018-08-19T07:52:35.461Z,32.5
2018-08-19T07:53:37.639Z,32.5
2018-08-19T07:54:39.790Z,32.5
2018-08-19T07:55:41.968Z,32.5
2018-08-19T07:56:44.163Z,32.5
2018-08-19T07:57:46.601Z,32.5
2018-08-19T07:58:49.048Z,32.5
2018-08-19T07:59:51.237Z,32.5
2018-08-19T08:00:53.677Z,32.5
2018-08-19T08:01:56.120Z,32.5
2018-08-19T08:02:58.296Z,32.5
2018-08-19T08:04:00.737Z,32.5
2018-08-19T08:05:02.887Z,32.5
2018-08-19T08:06:05.059Z,32.5
2018-08-19T08:07:06.925Z,32.5
2018-08-19T08:08:09.375Z,32.5
2018-08-19T08:09:11.559Z,32.5
2018-08-19T08:10:13.216Z,32.5
2018-08-19T08:11:15.384Z,32.5
2018-08-19T08:12:17.836Z,32.5
2018-08-19T08:13:20.284Z,32.5
2018-08-19T08:14:22.738Z,32.5
2018-08-19T08:15:24.908Z,32.5
2018-08-19T08:16:27.106Z,32.5
2018-08-19T08:17:29.007Z,32.5
2018-08-19T08:18:31.454Z,32.5
2018-08-19T08:19:33.905Z,32.5
2018-08-19T08:20:36.077Z,32.5
2018-08-19T08:21:38.338Z,32.5
2018-08-19T08:22:40.947Z,32.5
2018-08-19T08:23:43.126Z,32.5
2018-08-19T08:24:45.023Z,32.5
2018-08-19T08:25:47.189Z,32.5
2018-08-19T08:26:49.634Z,32.5
2018-08-19T08:27:52.228Z,32.5
2018-08-19T08:28:54.102Z,32.5
2018-08-19T08:29:56.274Z,32.5
2018-08-19T08:30:58.742Z,32.5
2018-08-19T08:32:01.304Z,32.5
2018-08-19T08:33:03.590Z,32.5
2018-08-19T08:34:06.040Z,32.5
2018-08-19T08:35:08.498Z,32.5
2018-08-19T08:36:10.954Z,32.5
2018-08-19T08:37:12.588Z,32.5
2018-08-19T08:38:15.036Z,32.5
2018-08-19T08:39:17.259Z,32.5
2018-08-19T08:40:19.452Z,32.5
2018-08-19T08:41:21.635Z,32.5
2018-08-19T08:42:23.822Z,32.5
2018-08-19T08:43:26.067Z,32.5
2018-08-19T08:44:28.513Z,32.5
2018-08-19T08:45:30.969Z,32.5
2018-08-19T08:46:33.415Z,32.5
2018-08-19T08:47:35.824Z,32.5
2018-08-19T08:48:38.834Z,32.5
2018-08-19T08:49:41.288Z,32.5
2018-08-19T08:50:43.731Z,32.5
2018-08-19T08:51:46.234Z,32.5
2018-08-19T08:52:48.920Z,32.5
2018-08-19T08:53:50.551Z,32.5
2018-08-19T08:54:53.009Z,32.5
2018-08-19T08:55:55.207Z,32.5
2018-08-19T08:56:57.390Z,32.5
2018-08-19T08:57:59.538Z,32.5
2018-08-19T08:59:01.989Z,32.5
2018-08-19T09:00:04.174Z,32.5
2018-08-19T09:01:06.361Z,32.5
2018-08-19T09:02:08.265Z,32.5
2018-08-19T09:03:10.899Z,32.5
2018-08-19T09:04:12.774Z,32.5
2018-08-19T09:05:15.211Z,32.5
2018-08-19T09:06:17.675Z,32.5
2018-08-19T09:07:19.585Z,32.5
2018-08-19T09:08:21.782Z,32.5
2018-08-19T09:09:24.230Z,32.5
2018-08-19T09:10:26.148Z,32.5
2018-08-19T09:11:28.595Z,32.5
2018-08-19T09:12:31.052Z,32.5
2018-08-19T09:13:33.243Z,32.5
2018-08-19T09:14:35.698Z,32.5
2018-08-19T09:15:37.884Z,32.5
2018-08-19T09:16:40.026Z,32.5
2018-08-19T09:17:42.181Z,32.4
2018-08-19T09:18:44.635Z,32.5
2018-08-19T09:19:47.091Z,32.4
2018-08-19T09:20:48.971Z,32.5
2018-08-19T09:21:51.154Z,32.4
2018-08-19T09:22:53.448Z,32.4
2018-08-19T09:23:56.066Z,32.5
2018-08-19T09:24:57.946Z,32.5
2018-08-19T09:26:00.415Z,32.5
2018-08-19T09:27:02.902Z,32.4
2018-08-19T09:28:05.072Z,32.5
2018-08-19T09:29:07.237Z,32.5
2018-08-19T09:30:09.409Z,32.4
2018-08-19T09:31:11.869Z,32.4
2018-08-19T09:32:14.055Z,32.4
2018-08-19T09:33:16.498Z,32.4
2018-08-19T09:34:18.421Z,32.4
2018-08-19T09:35:20.312Z,32.4
2018-08-19T09:36:22.755Z,32.4
2018-08-19T09:37:24.945Z,32.4
2018-08-19T09:38:26.839Z,32.4
2018-08-19T09:39:29.025Z,32.4
2018-08-19T09:40:31.476Z,32.4
2018-08-19T09:41:33.931Z,32.4
2018-08-19T09:42:35.885Z,32.4
2018-08-19T09:43:38.318Z,32.4
2018-08-19T09:44:40.219Z,32.4
2018-08-19T09:45:42.664Z,32.4
2018-08-19T09:46:44.561Z,32.4
2018-08-19T09:47:47.609Z,32.4
2018-08-19T09:48:50.090Z,32.4
2018-08-19T09:49:52.427Z,32.4
2018-08-19T09:50:54.986Z,32.4
2018-08-19T09:51:57.167Z,32.4
2018-08-19T09:52:59.359Z,32.4
2018-08-19T09:54:01.544Z,32.4
2018-08-19T09:55:04.068Z,32.4
2018-08-19T09:56:06.251Z,32.4
2018-08-19T09:57:08.139Z,32.4
2018-08-19T09:58:10.307Z,32.4
2018-08-19T09:59:12.499Z,32.4
2018-08-19T10:00:14.964Z,32.4
2018-08-19T10:01:17.409Z,32.5
2018-08-19T10:02:19.598Z,32.5
2018-08-19T10:03:21.786Z,32.5
2018-08-19T10:04:23.967Z,32.5
2018-08-19T10:05:26.433Z,32.5
2018-08-19T10:06:28.611Z,32.5
2018-08-19T10:07:31.391Z,32.5
2018-08-19T10:08:34.048Z,32.5
2018-08-19T10:09:36.247Z,32.5
2018-08-19T10:10:38.145Z,32.5
2018-08-19T10:11:40.340Z,32.5
2018-08-19T10:12:42.782Z,32.5
2018-08-19T10:13:45.168Z,32.5
2018-08-19T10:14:47.723Z,32.5
2018-08-19T10:15:49.898Z,32.5
2018-08-19T10:16:52.076Z,32.5
2018-08-19T10:17:53.998Z,32.5
2018-08-19T10:18:56.471Z,32.5
2018-08-19T10:19:58.641Z,32.5
2018-08-19T10:21:01.107Z,32.5
2018-08-19T10:22:03.295Z,32.5
2018-08-19T10:23:05.755Z,32.5
2018-08-19T10:24:07.938Z,32.5
2018-08-19T10:25:09.865Z,32.5
2018-08-19T10:26:12.046Z,32.5
2018-08-19T10:27:14.485Z,32.5
2018-08-19T10:28:16.644Z,32.5
2018-08-19T10:29:18.825Z,32.5
2018-08-19T10:30:20.733Z,32.5
2018-08-19T10:31:23.437Z,32.5
2018-08-19T10:32:25.957Z,32.5
2018-08-19T10:33:28.144Z,32.5
2018-08-19T10:34:30.017Z,32.5
2018-08-19T10:35:32.200Z,32.5
2018-08-19T10:36:34.670Z,32.5
2018-08-19T10:37:37.108Z,32.5
2018-08-19T10:38:39.569Z,32.5
2018-08-19T10:39:42.039Z,32.5
2018-08-19T10:40:44.209Z,32.5
2018-08-19T10:41:46.377Z,32.5
2018-08-19T10:42:48.825Z,32.6
2018-08-19T10:43:51.096Z,32.5
2018-08-19T10:44:53.267Z,32.5
2018-08-19T10:45:55.176Z,32.5
2018-08-19T10:46:57.085Z,32.6
2018-08-19T10:47:59.284Z,32.5
2018-08-19T10:49:01.456Z,32.5
2018-08-19T10:50:03.636Z,32.6
2018-08-19T10:51:06.077Z,32.5
2018-08-19T10:52:08.254Z,32.6
2018-08-19T10:53:10.163Z,32.6
2018-08-19T10:54:12.327Z,32.5
2018-08-19T10:55:14.238Z,32.6
2018-08-19T10:56:16.687Z,32.6
2018-08-19T10:57:18.874Z,32.6
2018-08-19T10:58:21.414Z,32.6
2018-08-19T10:59:23.615Z,32.6
2018-08-19T11:00:26.066Z,32.6
2018-08-19T11:01:28.247Z,32.6
2018-08-19T11:02:30.693Z,32.6
2018-08-19T11:03:33.133Z,32.6
2018-08-19T11:04:35.307Z,32.6
2018-08-19T11:05:37.497Z,32.6
2018-08-19T11:06:39.464Z,32.6
2018-08-19T11:07:41.927Z,32.6
2018-08-19T11:08:44.377Z,32.6
2018-08-19T11:09:46.832Z,32.6
2018-08-19T11:10:48.752Z,32.6
2018-08-19T11:11:50.937Z,32.6
2018-08-19T11:12:53.395Z,32.6
2018-08-19T11:13:55.843Z,32.6
2018-08-19T11:14:58.025Z,32.6
2018-08-19T11:16:00.208Z,32.6
2018-08-19T11:17:02.654Z,32.6
2018-08-19T11:18:04.282Z,32.6
2018-08-19T11:19:06.741Z,32.6
2018-08-19T11:20:08.937Z,32.6
2018-08-19T11:21:11.334Z,32.6
2018-08-19T11:22:13.808Z,32.6
2018-08-19T11:23:16.256Z,32.6
2018-08-19T11:24:18.129Z,32.6
2018-08-19T11:25:20.301Z,32.6
2018-08-19T11:26:22.736Z,32.6
2018-08-19T11:27:25.261Z,32.6
2018-08-19T11:28:27.787Z,32.6
2018-08-19T11:29:30.234Z,32.6
2018-08-19T11:30:32.424Z,32.6
2018-08-19T11:31:35.087Z,32.6
2018-08-19T11:32:38.002Z,32.6
2018-08-19T11:33:40.161Z,32.6
2018-08-19T11:34:42.345Z,32.6
2018-08-19T11:35:44.806Z,32.6
2018-08-19T11:36:46.985Z,32.6
2018-08-19T11:37:48.883Z,32.6
2018-08-19T11:38:51.338Z,32.6
2018-08-19T11:39:53.819Z,32.6
2018-08-19T11:40:55.998Z,32.6
2018-08-19T11:41:58.150Z,32.6
2018-08-19T11:43:00.337Z,32.6
2018-08-19T11:44:02.495Z,32.6
2018-08-19T11:45:04.678Z,32.6
2018-08-19T11:46:06.854Z,32.6
2018-08-19T11:47:09.037Z,32.6
2018-08-19T11:48:11.208Z,32.6
2018-08-19T11:49:13.371Z,32.6
2018-08-19T11:50:15.808Z,32.6
2018-08-19T11:51:18.271Z,32.6
2018-08-19T11:52:19.897Z,32.6
2018-08-19T11:53:22.089Z,32.6
2018-08-19T11:54:24.537Z,32.6
2018-08-19T11:55:27.245Z,32.6
2018-08-19T11:56:30.001Z,32.6
2018-08-19T11:57:32.455Z,32.6
2018-08-19T11:58:34.892Z,32.6
2018-08-19T11:59:37.057Z,32.6
2018-08-19T12:00:39.540Z,32.6
2018-08-19T12:01:41.986Z,32.6
2018-08-19T12:02:43.872Z,32.6
2018-08-19T12:03:46.319Z,32.6
2018-08-19T12:04:48.468Z,32.6
2018-08-19T12:05:50.654Z,32.6
2018-08-19T12:06:52.834Z,32.6
2018-08-19T12:07:55.014Z,32.6
2018-08-19T12:08:57.471Z,32.6
2018-08-19T12:09:59.929Z,32.6
2018-08-19T12:11:02.379Z,32.6
2018-08-19T12:12:04.836Z,32.6
2018-08-19T12:13:06.724Z,32.6
2018-08-19T12:14:09.196Z,32.6
2018-08-19T12:15:11.095Z,32.6
2018-08-19T12:16:13.029Z,32.6
2018-08-19T12:17:15.480Z,32.6
2018-08-19T12:18:17.088Z,32.6
2018-08-19T12:19:18.992Z,32.6
2018-08-19T12:20:21.190Z,32.6
2018-08-19T12:21:23.635Z,32.6
2018-08-19T12:22:25.814Z,32.6
2018-08-19T12:23:27.988Z,32.6
2018-08-19T12:24:30.437Z,32.6
2018-08-19T12:25:32.349Z,32.6
2018-08-19T12:26:34.802Z,32.6
2018-08-19T12:27:37.372Z,32.6
2018-08-19T12:28:40.224Z,32.6
2018-08-19T12:29:42.667Z,32.6
2018-08-19T12:30:45.118Z,32.6
2018-08-19T12:31:47.302Z,32.6
2018-08-19T12:32:49.765Z,32.6
2018-08-19T12:33:51.660Z,32.6
2018-08-19T12:34:53.824Z,32.6
2018-08-19T12:35:56.309Z,32.6
2018-08-19T12:36:58.290Z,32.6
2018-08-19T12:38:00.818Z,32.6
2018-08-19T12:39:03.007Z,32.6
2018-08-19T12:40:05.182Z,32.6
2018-08-19T12:41:07.632Z,32.6
2018-08-19T12:42:10.077Z,32.6
2018-08-19T12:43:11.952Z,32.6
2018-08-19T12:44:13.842Z,32.6
2018-08-19T12:45:16.307Z,32.6
2018-08-19T12:46:18.578Z,32.6
2018-08-19T12:47:20.738Z,32.6
2018-08-19T12:48:22.648Z,32.6
2018-08-19T12:49:24.819Z,32.6
2018-08-19T12:50:26.996Z,32.6
2018-08-19T12:51:29.441Z,32.6
2018-08-19T12:52:31.457Z,32.6
2018-08-19T12:53:33.607Z,32.6
2018-08-19T12:54:35.801Z,32.6
2018-08-19T12:55:37.666Z,32.6
2018-08-19T12:56:39.842Z,32.6
2018-08-19T12:57:42.032Z,32.6
2018-08-19T12:58:44.529Z,32.6
2018-08-19T12:59:46.988Z,32.6
2018-08-19T13:00:48.878Z,32.6
2018-08-19T13:01:51.032Z,32.6
2018-08-19T13:02:53.544Z,32.6
2018-08-19T13:03:55.996Z,32.6
2018-08-19T13:04:58.177Z,32.6
2018-08-19T13:06:00.638Z,32.6
2018-08-19T13:07:02.280Z,32.6
2018-08-19T13:08:04.674Z,32.6
2018-08-19T13:09:07.426Z,32.6
2018-08-19T13:10:09.881Z,32.6
2018-08-19T13:11:12.047Z,32.6
2018-08-19T13:12:14.234Z,32.6
2018-08-19T13:13:16.407Z,32.6
2018-08-19T13:14:18.843Z,32.6
2018-08-19T13:15:20.789Z,32.6
2018-08-19T13:16:23.236Z,32.6
2018-08-19T13:17:25.136Z,32.6
2018-08-19T13:18:27.283Z,32.6
2018-08-19T13:19:29.750Z,32.6
2018-08-19T13:20:32.193Z,32.6
2018-08-19T13:21:34.646Z,32.6
2018-08-19T13:22:37.332Z,32.6
2018-08-19T13:23:39.489Z,32.6
2018-08-19T13:24:41.661Z,32.6
2018-08-19T13:25:43.577Z,32.6
2018-08-19T13:26:45.763Z,32.6
2018-08-19T13:27:48.219Z,32.6
2018-08-19T13:28:50.417Z,32.6
2018-08-19T13:29:52.610Z,32.6
2018-08-19T13:30:54.797Z,32.6
2018-08-19T13:31:57.292Z,32.6
2018-08-19T13:32:59.168Z,32.6
2018-08-19T13:34:01.065Z,32.6
2018-08-19T13:35:03.519Z,32.6
2018-08-19T13:36:05.953Z,32.6
2018-08-19T13:37:08.403Z,32.6
2018-08-19T13:38:10.988Z,32.6
2018-08-19T13:39:13.483Z,32.6
2018-08-19T13:40:15.939Z,32.6
2018-08-19T13:41:18.402Z,32.6
2018-08-19T13:42:20.847Z,32.6
2018-08-19T13:43:23.035Z,32.6
2018-08-19T13:44:25.499Z,32.6
2018-08-19T13:45:27.660Z,32.6
2018-08-19T13:46:30.219Z,32.6
2018-08-19T13:47:32.122Z,32.6
2018-08-19T13:48:34.009Z,32.6
2018-08-19T13:49:36.513Z,32.6
2018-08-19T13:50:38.954Z,32.6
2018-08-19T13:51:41.397Z,32.6